Time;durP1;ratioP1;P1;durP2;ratioP2;P2;SDS_P1;SDS_P2;PMS_P1;PMS_P2;Temp;Humidity;BMP_temperature;BMP_pressure;BME280_temperature;BME280_humidity;BME280_pressure;Samples;Min_cycle;Max_cycle;Signal;HPM_P1;HPM_P2
2022/04/28 00:00:15;;;;;;;8.82;2.53;;;4.90;99.90;;;;;;5032371;28;20033;-65
2022/04/28 00:02:41;;;;;;;5.47;2.65;;;5.00;99.90;;;;;;5032300;28;20052;-65
2022/04/28 00:05:09;;;;;;;3.83;1.95;;;5.00;99.90;;;;;;5032303;28;20057;-66
2022/04/28 00:07:36;;;;;;;8.05;2.05;;;4.90;99.90;;;;;;5032371;28;20029;-65
2022/04/28 00:10:02;;;;;;;4.95;2.33;;;4.90;99.90;;;;;;5032410;28;20401;-65
2022/04/28 00:12:28;;;;;;;3.42;1.95;;;4.90;99.90;;;;;;5032176;28;20037;-65
2022/04/28 00:14:54;;;;;;;3.30;2.17;;;4.90;99.90;;;;;;5032140;28;20044;-67
2022/04/28 00:17:20;;;;;;;4.60;2.50;;;4.90;99.90;;;;;;5032254;28;20033;-67
2022/04/28 00:19:45;;;;;;;7.35;1.92;;;4.80;99.90;;;;;;5032212;28;20103;-67
2022/04/28 00:22:13;;;;;;;5.15;2.25;;;4.80;99.90;;;;;;5036018;28;20043;-67
2022/04/28 00:24:38;;;;;;;3.40;2.30;;;4.70;99.90;;;;;;5036524;28;20044;-67
2022/04/28 00:27:04;;;;;;;4.13;2.30;;;4.70;99.90;;;;;;5035947;28;20045;-67
2022/04/28 00:29:30;;;;;;;4.32;2.38;;;4.70;99.90;;;;;;5036119;28;20029;-67
2022/04/28 00:31:55;;;;;;;9.07;2.65;;;4.80;99.90;;;;;;5035938;28;20404;-67
2022/04/28 00:34:21;;;;;;;3.78;2.60;;;4.80;99.90;;;;;;5035926;28;20033;-67
2022/04/28 00:36:47;;;;;;;4.15;1.92;;;4.70;99.90;;;;;;5035830;28;20034;-67
2022/04/28 00:39:12;;;;;;;3.38;1.98;;;4.70;99.90;;;;;;5036497;28;20044;-67
2022/04/28 00:41:38;;;;;;;6.93;2.00;;;4.70;99.90;;;;;;5035572;28;20104;-67
2022/04/28 00:44:07;;;;;;;4.45;2.15;;;4.70;99.90;;;;;;5035701;28;20091;-67
2022/04/28 00:46:33;;;;;;;3.72;2.30;;;4.60;99.90;;;;;;5035641;28;20038;-67
2022/04/28 00:51:43;;;;;;;3.83;2.15;;;4.50;99.90;;;;;;5035665;28;20129;-67
2022/04/28 00:54:08;;;;;;;2.83;1.77;;;4.40;99.90;;;;;;5035471;28;20116;-67
2022/04/28 00:56:34;;;;;;;4.82;2.10;;;4.40;99.90;;;;;;5035413;28;20238;-66
2022/04/28 00:59:02;;;;;;;5.68;2.10;;;4.40;99.90;;;;;;5035259;28;20099;-67
2022/04/28 01:01:29;;;;;;;3.08;2.50;;;4.60;99.90;;;;;;5035370;28;20041;-66
2022/04/28 01:03:54;;;;;;;5.25;2.00;;;4.50;99.90;;;;;;5035319;28;20121;-66
2022/04/28 01:06:20;;;;;;;4.10;2.72;;;4.50;99.90;;;;;;5035302;28;20112;-67
2022/04/28 01:08:46;;;;;;;3.67;2.00;;;4.40;99.90;;;;;;5035335;28;20501;-65
2022/04/28 01:11:13;;;;;;;4.82;2.22;;;4.40;99.90;;;;;;5035367;28;20515;-65
2022/04/28 01:13:38;;;;;;;7.30;2.17;;;4.40;99.90;;;;;;5017384;28;20029;-66
2022/04/28 01:16:04;;;;;;;6.47;2.60;;;4.30;99.90;;;;;;5035128;28;20040;-67
2022/04/28 01:18:30;;;;;;;6.72;2.53;;;4.20;99.90;;;;;;5035080;28;20522;-67
2022/04/28 01:21:04;;;;;;;4.97;2.42;;;4.20;99.90;;;;;;5035073;28;20068;-66
2022/04/28 01:23:32;;;;;;;3.28;2.28;;;4.30;99.90;;;;;;5034986;28;20034;-66
2022/04/28 01:25:58;;;;;;;2.38;2.17;;;4.20;99.90;;;;;;5034942;28;20028;-67
2022/04/28 01:28:26;;;;;;;2.40;2.08;;;4.20;99.90;;;;;;5035170;28;20030;-66
2022/04/28 01:30:52;;;;;;;4.88;2.63;;;4.20;99.90;;;;;;5034865;28;20036;-67
2022/04/28 01:33:18;;;;;;;2.58;1.88;;;4.10;99.90;;;;;;5034116;28;20115;-66
2022/04/28 01:35:44;;;;;;;6.90;2.13;;;4.10;99.90;;;;;;5034645;28;20041;-67
2022/04/28 01:38:09;;;;;;;8.77;2.65;;;4.10;99.90;;;;;;5034790;28;20068;-67
2022/04/28 01:40:35;;;;;;;5.07;1.98;;;4.10;99.90;;;;;;5034860;28;20044;-67
2022/04/28 01:43:01;;;;;;;2.70;1.98;;;4.10;99.90;;;;;;5034563;28;20040;-66
2022/04/28 01:45:26;;;;;;;5.43;2.17;;;4.10;99.90;;;;;;5034672;28;20040;-67
2022/04/28 01:47:52;;;;;;;5.88;2.03;;;4.10;99.90;;;;;;5034443;28;20390;-67
2022/04/28 01:50:17;;;;;;;5.30;2.35;;;4.10;99.90;;;;;;5034467;28;20108;-66
2022/04/28 01:55:30;;;;;;;5.25;2.70;;;4.00;99.90;;;;;;5034513;28;20092;-66
2022/04/28 01:57:57;;;;;;;5.03;2.25;;;4.00;99.90;;;;;;5034112;28;20053;-66
2022/04/28 02:00:22;;;;;;;3.17;2.20;;;4.00;99.90;;;;;;5034858;28;20490;-66
2022/04/28 02:02:48;;;;;;;13.73;2.72;;;4.00;99.90;;;;;;5034057;28;20124;-66
2022/04/28 02:05:14;;;;;;;4.72;2.33;;;4.00;99.90;;;;;;5034375;28;20425;-67
2022/04/28 02:07:39;;;;;;;3.85;2.15;;;4.00;99.90;;;;;;5034131;28;20022;-67
2022/04/28 02:10:06;;;;;;;4.72;2.28;;;4.10;99.90;;;;;;5034043;28;20548;-67
2022/04/28 02:12:32;;;;;;;3.88;2.08;;;4.10;99.90;;;;;;5016456;28;20041;-66
2022/04/28 02:14:58;;;;;;;4.75;2.20;;;4.20;99.90;;;;;;5034013;28;20535;-66
2022/04/28 02:17:26;;;;;;;8.10;2.53;;;4.30;99.90;;;;;;5033874;28;20041;-66
2022/04/28 02:19:51;;;;;;;;;;;4.30;99.90;;;;;;5034593;28;20117;-66
2022/04/28 02:22:17;;;;;;;6.03;1.95;;;4.30;99.90;;;;;;5033872;28;20390;-66
2022/04/28 02:24:43;;;;;;;3.40;2.15;;;4.30;99.90;;;;;;5033850;28;20037;-66
2022/04/28 02:27:09;;;;;;;6.13;2.45;;;4.30;99.90;;;;;;5033721;28;20386;-65
2022/04/28 02:29:35;;;;;;;4.72;2.63;;;4.40;99.90;;;;;;5033835;28;20038;-66
2022/04/28 02:32:01;;;;;;;3.95;2.30;;;4.40;99.90;;;;;;5015884;28;20497;-66
2022/04/28 02:34:27;;;;;;;5.07;2.08;;;4.30;99.90;;;;;;5033733;28;20104;-65
2022/04/28 02:36:53;;;;;;;7.85;2.35;;;4.30;99.90;;;;;;5033859;28;20033;-65
2022/04/28 02:39:19;;;;;;;5.90;2.13;;;4.40;99.90;;;;;;5033846;28;20044;-65
2022/04/28 02:41:46;;;;;;;10.43;2.80;;;4.40;99.90;;;;;;5033508;28;20034;-65
2022/04/28 02:44:14;;;;;;;4.07;2.17;;;4.40;99.90;;;;;;5033638;28;20470;-65
2022/04/28 02:46:45;;;;;;;6.82;2.28;;;4.30;99.90;;;;;;5033259;28;20030;-66
2022/04/28 02:49:12;;;;;;;3.00;1.98;;;4.40;99.90;;;;;;5015678;28;20087;-66
2022/04/28 02:51:38;;;;;;;6.68;2.83;;;4.30;99.90;;;;;;5033413;28;20049;-66
2022/04/28 02:54:04;;;;;;;4.90;2.90;;;4.20;99.90;;;;;;5033367;28;20038;-65
2022/04/28 02:56:30;;;;;;;3.22;2.30;;;4.40;99.90;;;;;;5033079;28;20033;-66
2022/04/28 02:58:55;;;;;;;8.30;2.80;;;4.40;99.90;;;;;;5033024;28;20513;-66
2022/04/28 03:01:22;;;;;;;6.13;2.72;;;4.40;99.90;;;;;;5033180;28;20071;-66
2022/04/28 03:03:49;;;;;;;3.88;2.42;;;4.40;99.90;;;;;;5033190;28;20156;-65
2022/04/28 03:11:42;;;;;;;4.38;2.38;;;4.40;99.90;;;;;;5033050;28;20060;-65
2022/04/28 03:14:09;;;;;;;5.70;2.35;;;4.30;99.90;;;;;;5033074;28;20041;-65
2022/04/28 03:16:35;;;;;;;4.63;2.67;;;4.20;99.90;;;;;;5032896;28;20048;-66
2022/04/28 03:19:01;;;;;;;5.20;2.55;;;4.20;99.90;;;;;;5032853;28;20030;-65
2022/04/28 03:21:27;;;;;;;9.23;2.70;;;4.20;99.90;;;;;;5033234;28;20022;-65
2022/04/28 03:23:53;;;;;;;6.43;2.88;;;4.20;99.90;;;;;;5032609;28;20044;-65
2022/04/28 03:26:19;;;;;;;5.60;2.45;;;4.10;99.90;;;;;;5032778;28;20040;-65
2022/04/28 03:28:45;;;;;;;7.47;3.35;;;4.10;99.90;;;;;;5032935;28;20493;-65
2022/04/28 03:31:11;;;;;;;4.53;2.10;;;4.20;99.90;;;;;;5032734;28;20033;-66
2022/04/28 03:33:36;;;;;;;3.85;2.10;;;4.20;99.90;;;;;;5032760;28;20037;-65
2022/04/28 03:36:50;;;;;;;5.22;2.75;;;4.20;99.90;;;;;;5032737;28;20041;-65
2022/04/28 03:38:48;;;;;;;6.80;2.75;;;4.20;99.90;;;;;;5032397;28;20041;-65
2022/04/28 03:41:14;;;;;;;5.03;2.25;;;4.30;99.90;;;;;;5014937;28;20068;-65
2022/04/28 03:43:39;;;;;;;5.70;2.97;;;4.30;99.90;;;;;;5032639;28;20406;-65
2022/04/28 03:46:05;;;;;;;4.72;3.00;;;4.30;99.90;;;;;;5032551;28;20393;-65
2022/04/28 03:48:30;;;;;;;7.28;2.40;;;4.20;99.90;;;;;;5032539;28;20041;-65
2022/04/28 03:50:56;;;;;;;6.43;2.67;;;4.10;99.90;;;;;;5032452;28;20029;-65
2022/04/28 03:53:22;;;;;;;5.45;2.60;;;4.20;99.90;;;;;;5014769;28;20378;-66
2022/04/28 03:55:48;;;;;;;4.30;2.47;;;4.30;99.90;;;;;;5031959;28;20406;-65
2022/04/28 03:58:13;;;;;;;5.18;3.05;;;4.30;99.90;;;;;;5014634;28;20052;-65
2022/04/28 04:00:39;;;;;;;6.07;2.60;;;4.20;99.90;;;;;;5032498;28;20100;-65
2022/04/28 04:03:04;;;;;;;5.22;2.53;;;4.30;99.90;;;;;;5032361;28;20046;-65
2022/04/28 04:05:30;;;;;;;6.72;3.08;;;4.20;99.90;;;;;;5032383;28;20108;-65
2022/04/28 04:07:56;;;;;;;7.63;2.95;;;4.10;99.90;;;;;;5032178;28;20033;-65
2022/04/28 04:10:21;;;;;;;4.85;3.08;;;4.20;99.90;;;;;;5032552;28;20037;-65
2022/04/28 04:12:47;;;;;;;5.03;2.33;;;4.10;99.90;;;;;;5032312;28;20026;-65
2022/04/28 04:15:13;;;;;;;8.10;2.50;;;4.10;99.90;;;;;;5014761;28;20042;-65
2022/04/28 04:17:43;;;;;;;5.90;2.55;;;4.10;99.90;;;;;;5032200;28;20045;-65
2022/04/28 04:20:09;;;;;;;4.90;2.83;;;4.10;99.90;;;;;;5032147;28;20046;-65
2022/04/28 04:22:36;;;;;;;5.95;3.13;;;4.10;99.90;;;;;;5014417;28;20090;-66
2022/04/28 04:25:03;;;;;;;7.50;2.80;;;4.10;99.90;;;;;;5014787;28;20041;-65
2022/04/28 04:27:29;;;;;;;;;;;4.20;99.90;;;;;;5032700;28;20073;-66
2022/04/28 04:29:55;;;;;;;4.15;2.28;;;4.20;99.90;;;;;;5032145;28;19940;-66
2022/04/28 04:32:25;;;;;;;6.45;2.90;;;4.20;99.90;;;;;;5032380;28;20030;-65
2022/04/28 04:34:52;;;;;;;6.88;2.72;;;4.20;99.90;;;;;;5031938;28;20064;-66
2022/04/28 04:37:18;;;;;;;6.95;2.72;;;4.30;99.90;;;;;;5032077;28;20396;-66
2022/04/28 04:39:44;;;;;;;6.63;3.00;;;4.40;99.90;;;;;;5032052;28;20044;-66
2022/04/28 04:42:10;;;;;;;6.00;3.00;;;4.40;99.90;;;;;;5032159;28;20490;-65
2022/04/28 04:44:36;;;;;;;4.63;2.63;;;4.30;99.90;;;;;;5032017;28;20033;-66
2022/04/28 04:47:03;;;;;;;7.10;2.95;;;4.30;99.90;;;;;;5032019;28;20029;-66
2022/04/28 04:49:29;;;;;;;7.50;2.60;;;4.20;99.90;;;;;;5014222;28;20037;-66
2022/04/28 04:51:55;;;;;;;5.65;2.83;;;4.30;99.90;;;;;;5031973;28;20033;-66
2022/04/28 04:54:20;;;;;;;7.57;3.25;;;4.40;99.90;;;;;;5032011;28;20029;-66
2022/04/28 04:56:46;;;;;;;6.93;2.95;;;4.40;99.90;;;;;;5032047;28;20041;-66
2022/04/28 04:59:12;;;;;;;4.80;3.13;;;4.40;99.90;;;;;;5031728;28;20059;-66
2022/04/28 05:01:37;;;;;;;4.63;2.72;;;4.50;99.90;;;;;;5031818;28;20045;-67
2022/04/28 05:04:03;;;;;;;6.30;2.83;;;4.50;99.90;;;;;;5031690;28;20041;-67
2022/04/28 05:06:30;;;;;;;3.90;3.00;;;4.60;99.90;;;;;;5032095;28;20092;-67
2022/04/28 05:08:56;;;;;;;3.67;2.30;;;4.60;99.90;;;;;;5035110;28;20172;-68
2022/04/28 05:11:22;;;;;;;3.58;2.40;;;4.70;99.90;;;;;;5035498;28;20375;-67
2022/04/28 05:13:47;;;;;;;6.57;2.80;;;4.80;99.90;;;;;;5035313;28;20436;-67
2022/04/28 05:16:13;;;;;;;7.53;3.53;;;4.90;99.90;;;;;;5035642;28;20064;-67
2022/04/28 05:18:39;;;;;;;5.60;2.90;;;5.10;99.90;;;;;;5035048;28;20421;-66
2022/04/28 05:21:04;;;;;;;7.18;2.85;;;5.20;99.90;;;;;;5035173;28;20040;-67
2022/04/28 05:23:30;;;;;;;5.80;3.20;;;5.30;99.90;;;;;;5035021;28;20547;-66
2022/04/28 05:25:56;;;;;;;4.25;3.00;;;5.30;99.90;;;;;;5034864;28;20044;-66
2022/04/28 05:28:25;;;;;;;8.80;2.90;;;5.40;99.90;;;;;;5035052;28;20064;-67
2022/04/28 05:30:51;;;;;;;5.45;2.97;;;5.50;99.90;;;;;;5017144;28;20048;-67
2022/04/28 05:33:17;;;;;;;11.48;2.95;;;5.60;99.90;;;;;;5034963;28;20420;-67
2022/04/28 05:35:43;;;;;;;10.23;3.17;;;5.80;99.90;;;;;;5035250;28;20049;-67
2022/04/28 05:38:09;;;;;;;4.43;2.72;;;5.80;99.90;;;;;;5034692;28;20033;-67
2022/04/28 05:40:37;;;;;;;6.10;2.70;;;5.90;99.90;;;;;;5034885;28;20405;-67
2022/04/28 05:45:47;;;;;;;8.82;3.30;;;6.20;99.90;;;;;;5038770;28;20113;-67
2022/04/28 05:48:14;;;;;;;5.15;2.85;;;6.30;99.90;;;;;;5034731;28;20116;-67
2022/04/28 05:50:41;;;;;;;10.93;2.63;;;6.40;99.90;;;;;;5041659;28;20036;-70
2022/04/28 05:53:07;;;;;;;4.95;2.38;;;6.60;99.90;;;;;;5044278;28;20057;-68
2022/04/28 05:55:33;;;;;;;5.65;2.38;;;6.70;99.90;;;;;;5040482;28;20043;-68
2022/04/28 05:57:59;;;;;;;8.27;3.08;;;6.70;99.90;;;;;;5041147;28;20124;-68
2022/04/28 06:00:26;;;;;;;3.78;2.58;;;6.90;99.90;;;;;;5033989;28;20120;-68
2022/04/28 06:02:53;;;;;;;5.30;2.70;;;7.10;99.90;;;;;;5033842;28;20044;-68
2022/04/28 06:05:19;;;;;;;9.80;3.50;;;7.10;99.90;;;;;;5033563;28;20037;-68
2022/04/28 06:07:45;;;;;;;5.30;2.65;;;7.20;99.90;;;;;;5034249;28;20446;-68
2022/04/28 06:10:12;;;;;;;7.60;3.72;;;7.40;99.90;;;;;;5033944;28;20068;-69
2022/04/28 06:12:37;;;;;;;4.38;2.83;;;7.40;99.90;;;;;;5034033;28;20403;-69
2022/04/28 06:15:04;;;;;;;5.68;2.90;;;7.50;99.90;;;;;;5016173;28;20050;-68
2022/04/28 06:17:30;;;;;;;5.38;2.85;;;7.60;99.90;;;;;;5033939;28;20073;-68
2022/04/28 06:19:55;;;;;;;5.70;3.80;;;7.60;99.90;;;;;;5033448;28;20064;-67
2022/04/28 06:22:21;;;;;;;6.57;3.15;;;7.60;99.90;;;;;;5033746;28;20033;-68
2022/04/28 06:24:56;;;;;;;6.05;3.05;;;7.70;99.90;;;;;;5033791;28;20068;-68
2022/04/28 06:27:22;;;;;;;6.15;3.05;;;7.80;99.90;;;;;;5033634;28;20037;-66
2022/04/28 06:29:49;;;;;;;5.88;2.95;;;7.80;99.90;;;;;;5033707;28;20072;-67
2022/04/28 06:32:21;;;;;;;7.82;3.15;;;7.90;99.90;;;;;;5033677;28;20114;-67
2022/04/28 06:34:47;;;;;;;4.93;3.28;;;7.90;99.90;;;;;;5033625;28;20034;-67
2022/04/28 06:37:14;;;;;;;5.25;3.30;;;8.00;99.90;;;;;;5015844;28;20083;-67
2022/04/28 06:39:40;;;;;;;4.10;2.83;;;8.30;99.90;;;;;;5033439;28;20061;-67
2022/04/28 06:42:07;;;;;;;6.22;3.20;;;8.40;99.90;;;;;;5015541;28;20041;-67
2022/04/28 06:44:33;;;;;;;7.43;3.17;;;8.60;99.90;;;;;;5033529;28;20151;-68
2022/04/28 06:46:59;;;;;;;5.90;2.70;;;8.90;99.90;;;;;;5033581;28;20041;-67
2022/04/28 06:49:25;;;;;;;6.47;2.90;;;9.10;99.90;;;;;;5033340;28;20033;-67
2022/04/28 06:51:51;;;;;;;6.10;2.80;;;9.20;99.90;;;;;;5033361;28;20385;-68
2022/04/28 06:54:17;;;;;;;5.78;2.70;;;9.30;99.90;;;;;;5033200;28;20030;-68
2022/04/28 06:56:43;;;;;;;8.20;3.45;;;9.50;99.90;;;;;;5033261;28;20033;-67
2022/04/28 06:59:09;;;;;;;5.72;3.50;;;9.50;99.90;;;;;;5015075;28;20060;-68
2022/04/28 07:01:34;;;;;;;8.30;3.55;;;9.60;99.90;;;;;;5015635;28;20037;-68
2022/04/28 07:04:01;;;;;;;3.55;2.63;;;9.70;99.90;;;;;;5033123;28;20442;-65
2022/04/28 07:06:26;;;;;;;7.07;2.85;;;9.90;99.90;;;;;;5033162;28;20505;-67
2022/04/28 07:08:52;;;;;;;7.10;3.20;;;9.90;99.90;;;;;;5032843;28;20037;-68
2022/04/28 07:11:18;;;;;;;6.68;3.22;;;10.00;99.90;;;;;;5032892;28;20030;-68
2022/04/28 07:13:43;;;;;;;6.28;3.28;;;10.10;99.90;;;;;;5032987;28;20553;-67
2022/04/28 07:16:09;;;;;;;7.90;2.92;;;10.20;99.90;;;;;;5032922;28;20094;-67
2022/04/28 07:18:35;;;;;;;7.03;3.50;;;10.20;99.90;;;;;;5032890;28;20049;-67
2022/04/28 07:21:04;;;;;;;6.05;3.47;;;10.20;99.90;;;;;;5032762;28;20037;-67
2022/04/28 07:23:30;;;;;;;7.45;3.58;;;10.30;99.90;;;;;;5032726;28;20163;-67
2022/04/28 07:25:56;;;;;;;4.03;3.25;;;10.40;99.90;;;;;;5014978;28;20063;-66
2022/04/28 07:28:23;;;;;;;7.65;3.28;;;10.40;99.90;;;;;;5032844;28;20389;-68
2022/04/28 07:30:48;;;;;;;3.97;3.05;;;10.50;99.60;;;;;;5031936;28;20025;-67
2022/04/28 07:33:14;;;;;;;5.50;3.33;;;10.60;99.70;;;;;;5015030;28;20037;-66
2022/04/28 07:35:40;;;;;;;6.22;3.40;;;10.70;99.90;;;;;;5032825;28;20032;-67
2022/04/28 07:38:06;;;;;;;5.25;3.60;;;10.70;99.80;;;;;;5032852;28;20116;-67
2022/04/28 07:40:32;;;;;;;9.07;4.22;;;10.90;99.40;;;;;;5032455;28;20034;-67
2022/04/28 07:42:58;;;;;;;8.43;3.22;;;10.90;99.00;;;;;;5032441;28;20045;-64
2022/04/28 07:45:24;;;;;;;5.18;2.65;;;10.90;98.70;;;;;;5032561;28;20041;-64
2022/04/28 07:47:50;;;;;;;5.90;2.78;;;11.00;98.90;;;;;;5032548;28;20470;-65
2022/04/28 07:50:16;;;;;;;6.72;3.10;;;11.00;98.20;;;;;;5032351;28;20040;-64
2022/04/28 07:52:43;;;;;;;4.07;3.05;;;11.10;98.80;;;;;;5032401;28;20041;-65
2022/04/28 07:55:09;;;;;;;7.78;3.15;;;11.20;98.50;;;;;;5032535;28;20116;-64
2022/04/28 07:57:35;;;;;;;5.88;3.58;;;11.10;98.40;;;;;;5032485;28;20387;-64
2022/04/28 08:00:02;;;;;;;6.40;3.10;;;11.30;98.50;;;;;;5032263;28;20048;-65
2022/04/28 08:02:29;;;;;;;6.72;3.13;;;11.40;98.90;;;;;;5032384;28;20045;-64
2022/04/28 08:04:55;;;;;;;7.93;3.43;;;11.60;98.20;;;;;;5032307;28;20033;-64
2022/04/28 08:07:21;;;;;;;4.80;2.75;;;11.70;97.70;;;;;;5032199;28;20251;-64
2022/04/28 08:09:47;;;;;;;4.25;2.78;;;11.80;96.60;;;;;;5032301;28;20033;-64
2022/04/28 08:12:13;;;;;;;7.78;2.78;;;11.80;96.40;;;;;;5032340;28;20041;-64
2022/04/28 08:14:39;;;;;;;4.15;2.58;;;11.80;96.70;;;;;;5032598;28;20596;-64
2022/04/28 08:17:05;;;;;;;6.03;3.10;;;11.90;96.90;;;;;;5032436;28;20493;-65
2022/04/28 08:19:32;;;;;;;5.35;2.95;;;11.70;96.80;;;;;;5032184;28;20121;-65
2022/04/28 08:21:59;;;;;;;7.15;3.47;;;11.90;96.90;;;;;;5031949;28;20125;-65
2022/04/28 08:24:25;;;;;;;5.07;2.95;;;11.80;96.00;;;;;;5032336;28;20034;-64
2022/04/28 08:26:52;;;;;;;6.45;2.83;;;11.80;96.40;;;;;;5032071;28;20454;-64
2022/04/28 08:29:18;;;;;;;5.10;2.63;;;12.00;96.80;;;;;;5032035;28;20029;-64
2022/04/28 08:31:44;;;;;;;5.68;3.03;;;12.00;96.30;;;;;;5032088;28;20045;-64
2022/04/28 08:34:14;;;;;;;4.53;3.00;;;12.10;96.70;;;;;;5032087;28;20045;-66
2022/04/28 08:36:43;;;;;;;5.18;3.13;;;12.20;96.40;;;;;;5032065;28;20121;-67
2022/04/28 08:39:09;;;;;;;3.53;2.67;;;12.20;95.90;;;;;;5031865;28;20061;-65
2022/04/28 08:41:49;;;;;;;6.55;3.05;;;12.40;95.80;;;;;;5033037;28;20057;-65
2022/04/28 08:44:17;;;;;;;5.75;3.90;;;12.50;96.60;;;;;;5035762;28;20482;-66
2022/04/28 08:46:53;;;;;;;6.72;2.88;;;12.90;96.50;;;;;;5035710;28;20044;-65
2022/04/28 08:49:25;;;;;;;3.58;2.90;;;13.10;95.50;;;;;;5035675;28;20033;-65
2022/04/28 08:51:53;;;;;;;6.38;2.97;;;13.10;94.50;;;;;;5035756;28;20057;-65
2022/04/28 08:54:19;;;;;;;;;;;13.30;94.70;;;;;;5035932;28;20113;-66
2022/04/28 08:56:45;;;;;;;6.43;2.42;;;13.30;94.00;;;;;;5035770;28;20272;-66
2022/04/28 08:59:11;;;;;;;6.75;2.85;;;13.30;94.60;;;;;;5035352;28;20524;-66
2022/04/28 09:01:37;;;;;;;3.25;2.63;;;13.40;94.40;;;;;;5035226;28;20065;-65
2022/04/28 09:04:04;;;;;;;6.03;2.83;;;13.50;93.90;;;;;;5035339;28;20105;-64
2022/04/28 09:06:34;;;;;;;;;;;13.40;94.80;;;;;;5036085;28;20038;-64
2022/04/28 09:09:04;;;;;;;6.30;2.60;;;13.40;93.80;;;;;;5035301;28;19905;-64
2022/04/28 09:11:32;;;;;;;12.77;3.08;;;13.40;93.60;;;;;;5035335;28;20112;-64
2022/04/28 09:14:09;;;;;;;4.28;2.35;;;13.50;93.20;;;;;;5017376;28;20033;-64
2022/04/28 09:16:56;;;;;;;6.40;2.63;;;13.40;93.00;;;;;;5035267;28;20033;-64
2022/04/28 09:19:27;;;;;;;3.13;2.53;;;13.40;93.30;;;;;;5035265;28;20535;-65
2022/04/28 09:21:56;;;;;;;4.80;2.67;;;13.40;93.00;;;;;;5035088;28;20120;-65
2022/04/28 09:24:24;;;;;;;3.80;2.60;;;13.50;93.10;;;;;;5035201;28;20033;-65
2022/04/28 09:26:50;;;;;;;;;;;13.70;92.60;;;;;;5035606;28;20030;-65
2022/04/28 09:29:17;;;;;;;5.88;2.80;;;13.70;93.20;;;;;;5035242;28;20365;-63
2022/04/28 09:31:44;;;;;;;6.45;2.92;;;13.70;92.80;;;;;;5035008;28;20037;-64
2022/04/28 09:34:14;;;;;;;4.13;3.05;;;13.80;93.10;;;;;;5034958;28;20504;-63
2022/04/28 09:36:41;;;;;;;3.20;2.35;;;13.90;92.50;;;;;;5034846;28;20493;-63
2022/04/28 09:39:09;;;;;;;7.90;2.90;;;14.00;91.80;;;;;;5034489;28;20021;-64
2022/04/28 09:44:20;;;;;;;5.57;2.22;;;14.50;92.20;;;;;;5035054;28;20084;-63
2022/04/28 09:46:47;;;;;;;4.10;2.58;;;14.60;91.20;;;;;;5034653;28;20128;-64
2022/04/28 09:49:18;;;;;;;5.22;3.10;;;14.60;91.30;;;;;;5035004;28;20520;-63
2022/04/28 09:51:44;;;;;;;6.78;2.72;;;14.60;90.40;;;;;;5034501;28;20401;-63
2022/04/28 09:54:16;;;;;;;6.22;2.60;;;14.70;91.20;;;;;;5033729;28;20040;-63
2022/04/28 09:56:44;;;;;;;4.88;2.95;;;14.60;91.30;;;;;;5034635;28;20044;-63
2022/04/28 09:59:13;;;;;;;4.72;2.55;;;14.80;90.80;;;;;;5034205;28;20044;-63
2022/04/28 10:01:40;;;;;;;7.43;3.20;;;14.90;91.20;;;;;;5034164;28;20039;-64
2022/04/28 10:04:07;;;;;;;5.68;2.65;;;14.70;90.60;;;;;;5034129;28;20120;-64
2022/04/28 10:06:36;;;;;;;9.23;2.55;;;15.00;90.50;;;;;;5034321;28;20037;-63
2022/04/28 10:09:09;;;;;;;7.95;2.63;;;15.30;89.40;;;;;;5034457;28;20033;-63
2022/04/28 10:11:37;;;;;;;3.45;2.55;;;15.70;90.00;;;;;;5034388;28;20034;-63
2022/04/28 10:14:03;;;;;;;8.73;3.03;;;15.90;88.40;;;;;;5034143;28;20105;-63
2022/04/28 10:16:29;;;;;;;7.63;3.97;;;16.00;86.80;;;;;;5034163;28;20034;-63
2022/04/28 10:19:08;;;;;;;7.80;2.90;;;16.10;88.20;;;;;;5033895;28;20038;-63
2022/04/28 10:21:48;;;;;;;5.63;2.80;;;16.30;86.80;;;;;;5033891;28;20033;-63
2022/04/28 10:33:10;;;;;;;3.95;2.90;;;16.50;86.10;;;;;;5033918;28;20128;-63
2022/04/28 10:35:35;;;;;;;4.13;2.88;;;16.20;85.60;;;;;;5033771;28;20433;-64
2022/04/28 10:38:23;;;;;;;8.43;3.10;;;15.90;85.20;;;;;;5033640;28;20091;-63
2022/04/28 10:41:02;;;;;;;7.50;3.10;;;15.80;88.10;;;;;;5033649;28;20501;-63
2022/04/28 10:43:33;;;;;;;5.15;2.70;;;16.20;86.60;;;;;;5033400;28;20033;-63
2022/04/28 10:46:01;;;;;;;5.05;2.42;;;16.50;86.20;;;;;;5015614;28;20025;-63
2022/04/28 10:48:30;;;;;;;5.68;3.15;;;16.60;86.00;;;;;;5033525;28;20032;-63
2022/04/28 10:51:12;;;;;;;4.50;2.67;;;16.30;85.30;;;;;;5033387;28;20045;-63
2022/04/28 10:54:21;;;;;;;5.45;2.80;;;16.50;85.70;;;;;;5033338;28;20470;-63
2022/04/28 10:56:56;;;;;;;8.30;2.70;;;16.90;84.00;;;;;;5033248;28;20034;-63
2022/04/28 11:00:01;;;;;;;6.43;2.95;;;17.10;86.00;;;;;;5033015;28;20060;-63
2022/04/28 11:02:19;;;;;;;4.32;2.90;;;17.20;82.00;;;;;;5030780;28;20154;-64
2022/04/28 11:05:04;;;;;;;7.10;3.45;;;17.10;83.10;;;;;;5014663;28;20268;-64
2022/04/28 11:07:31;;;;;;;3.55;2.35;;;16.80;83.30;;;;;;5033246;28;20040;-64
2022/04/28 11:10:00;;;;;;;3.45;2.65;;;16.90;83.80;;;;;;5033043;28;20042;-63
2022/04/28 11:12:36;;;;;;;4.57;4.15;;;17.00;82.70;;;;;;5033055;28;20026;-64
2022/04/28 11:15:14;;;;;;;6.43;3.08;;;17.20;83.30;;;;;;5032781;28;20029;-64
2022/04/28 11:17:44;;;;;;;4.97;3.05;;;17.70;82.80;;;;;;5033297;28;20030;-63
2022/04/28 11:20:15;;;;;;;7.68;3.75;;;17.60;81.20;;;;;;5032818;28;20033;-64
2022/04/28 11:22:46;;;;;;;5.70;3.58;;;17.80;82.50;;;;;;5032870;28;20037;-65
2022/04/28 11:25:17;;;;;;;6.13;3.88;;;18.00;81.50;;;;;;5032810;28;20111;-64
2022/04/28 11:27:45;;;;;;;6.82;3.80;;;18.50;78.40;;;;;;5015435;28;20099;-63
2022/04/28 11:30:14;;;;;;;5.38;2.83;;;18.90;77.50;;;;;;5032600;28;20044;-63
2022/04/28 11:32:50;;;;;;;7.68;3.03;;;19.00;76.00;;;;;;5032561;28;20060;-63
2022/04/28 11:35:15;;;;;;;4.70;3.15;;;19.00;75.60;;;;;;5032602;28;20044;-63
2022/04/28 11:37:42;;;;;;;4.93;3.00;;;18.60;77.50;;;;;;5032653;28;20030;-64
2022/04/28 11:40:12;;;;;;;5.90;3.58;;;18.20;78.00;;;;;;5032556;28;20037;-64
2022/04/28 11:42:41;;;;;;;9.50;4.07;;;18.00;79.00;;;;;;5032563;28;20095;-64
2022/04/28 11:45:07;;;;;;;8.00;3.88;;;17.60;78.50;;;;;;5032432;28;20042;-63
2022/04/28 11:47:42;;;;;;;6.40;3.78;;;17.30;80.00;;;;;;5032657;28;20473;-63
2022/04/28 11:50:16;;;;;;;7.00;3.47;;;17.10;82.30;;;;;;5032440;28;20044;-65
2022/04/28 11:52:42;;;;;;;6.05;3.67;;;16.80;83.10;;;;;;5032582;28;20515;-63
2022/04/28 11:55:09;;;;;;;8.32;3.15;;;16.80;82.90;;;;;;5032715;28;20037;-63
2022/04/28 11:57:41;;;;;;;8.25;4.47;;;16.80;84.60;;;;;;5032704;28;20037;-64
2022/04/28 12:00:10;;;;;;;6.90;3.67;;;16.70;85.70;;;;;;5032283;28;20730;-64
2022/04/28 12:02:36;;;;;;;6.40;3.63;;;16.70;84.10;;;;;;5032197;28;20102;-63
2022/04/28 12:05:10;;;;;;;9.15;3.78;;;16.70;83.40;;;;;;5032143;28;20021;-64
2022/04/28 12:07:36;;;;;;;4.60;3.83;;;16.90;83.10;;;;;;5032405;28;20043;-63
2022/04/28 12:15:53;;;;;;;4.78;3.53;;;18.20;81.90;;;;;;4972074;28;20126;-63
2022/04/28 12:21:21;;;;;;;6.13;3.38;;;18.80;78.20;;;;;;5036468;28;20095;-63
2022/04/28 12:23:52;;;;;;;5.13;3.42;;;18.90;78.80;;;;;;5036079;28;20116;-63
2022/04/28 12:26:24;;;;;;;3.40;2.85;;;18.80;77.20;;;;;;5036125;28;20041;-63
2022/04/28 12:28:50;;;;;;;7.90;3.63;;;19.20;79.40;;;;;;5036310;28;20412;-63
2022/04/28 12:31:30;;;;;;;6.40;3.40;;;19.70;76.90;;;;;;5035981;28;20061;-63
2022/04/28 12:33:56;;;;;;;3.75;3.00;;;20.00;75.70;;;;;;5035924;28;20025;-63
2022/04/28 12:36:24;;;;;;;6.63;3.70;;;20.30;73.50;;;;;;5035992;28;20044;-63
2022/04/28 12:38:53;;;;;;;7.78;3.72;;;20.20;72.60;;;;;;5036043;28;20045;-63
2022/04/28 12:41:27;;;;;;;10.40;4.50;;;19.90;70.80;;;;;;5035779;28;20042;-62
2022/04/28 12:43:59;;;;;;;7.10;3.45;;;19.10;71.50;;;;;;5036032;28;20080;-63
2022/04/28 12:46:35;;;;;;;9.30;4.25;;;18.90;73.90;;;;;;5035895;28;20448;-63
2022/04/28 12:49:03;;;;;;;6.45;3.65;;;18.30;74.90;;;;;;5035665;28;20021;-63
2022/04/28 12:51:31;;;;;;;5.03;3.72;;;18.30;79.20;;;;;;5035696;28;20044;-63
2022/04/28 12:54:12;;;;;;;5.97;3.17;;;18.30;79.40;;;;;;5035567;28;20056;-63
2022/04/28 12:56:39;;;;;;;8.82;3.58;;;18.10;79.60;;;;;;5035807;28;20116;-63
2022/04/28 12:59:07;;;;;;;6.38;3.47;;;18.10;79.80;;;;;;5035352;28;20050;-63
2022/04/28 13:01:33;;;;;;;5.93;3.42;;;18.00;78.70;;;;;;5035567;28;20034;-63
2022/04/28 13:04:07;;;;;;;7.80;3.03;;;18.40;78.30;;;;;;5035192;28;20037;-62
2022/04/28 13:06:36;;;;;;;6.90;3.50;;;18.30;78.30;;;;;;5035458;28;20363;-63
2022/04/28 13:09:04;;;;;;;4.70;3.28;;;18.50;78.80;;;;;;5035768;28;20025;-63
2022/04/28 13:11:36;;;;;;;;;;;18.20;76.30;;;;;;5035724;28;20096;-64
2022/04/28 13:14:04;;;;;;;8.52;4.00;;;18.20;77.90;;;;;;5035286;28;19912;-63
2022/04/28 13:16:30;;;;;;;;;;;18.40;77.50;;;;;;5035665;28;20125;-63
2022/04/28 13:18:56;;;;;;;7.28;3.28;;;18.40;78.10;;;;;;5035248;28;19945;-63
2022/04/28 13:21:22;;;;;;;4.20;3.15;;;18.50;78.30;;;;;;5035196;28;20513;-63
2022/04/28 13:23:49;;;;;;;5.65;2.70;;;18.40;78.50;;;;;;5035014;28;20505;-63
2022/04/28 13:26:17;;;;;;;5.73;2.90;;;18.30;76.70;;;;;;5034943;28;20037;-63
2022/04/28 13:28:47;;;;;;;6.93;3.13;;;18.40;78.80;;;;;;5034189;28;20682;-63